METAR Data
IDs: Format: Raw Decoded Include TAF

Data at: 0556 UTC 07 Dec 2022

KBOK 070456Z AUTO 00000KT 10SM CLR 03/03 A3016 RMK AO2 SLP218 T00330033 $
KBOK 070356Z AUTO 00000KT 10SM CLR 04/04 A3015 RMK AO2 SLP214 T00440044 $
KBOK 070256Z AUTO 00000KT 10SM CLR 05/05 A3015 RMK AO2 SLP212 6//// T00500050 53006 $
KBOK 070156Z AUTO 00000KT 10SM CLR 06/06 A3014 RMK AO2 SLP210 T00610061 $
KBOK 070056Z AUTO 00000KT 10SM CLR 07/06 A3013 RMK AO2 SLP208 T00720061 $
KBOK 062356Z AUTO 30003KT 10SM CLR 09/07 A3013 RMK AO2 SLP204 T00890067 10094 20083 58003 $
KBOK 062256Z AUTO 28004KT 10SM CLR 09/06 A3013 RMK AO2 SLP207 T00890061 $
KBOK 062156Z AUTO 28006KT 10SM CLR 09/07 A3013 RMK AO2 SLP207 T00890067 $
KBOK 062056Z AUTO 27006KT 10SM CLR 09/06 A3014 RMK AO2 SLP208 T00890061 58001 $
KBOK 061956Z AUTO 28004KT 10SM CLR 09/06 A3014 RMK AO2 SLP209 T00890061 $
KBOK 061856Z AUTO 28004KT 10SM CLR 09/06 A3015 RMK AO2 SLP212 T00890056 $
KBOK 061756Z AUTO 00000KT 10SM CLR 09/04 A3014 RMK AO2 SLP208 T00890039 10089 20022 53015 $
KBOK 061656Z AUTO 15003KT 10SM CLR 05/04 A3012 RMK AO2 SLP205 T00500039 $
KBOK 061556Z AUTO 00000KT 10SM CLR 03/03 A3011 RMK AO2 SLP199 T00330028 $
KBOK 061456Z AUTO 00000KT 10SM CLR 03/03 A3009 RMK AO2 SLP194 T00280028 $
KBOK 061356Z AUTO 00000KT 10SM CLR 03/03 A3008 RMK AO2 SLP190 T00280028 $
KBOK 061256Z AUTO 00000KT 10SM CLR 02/02 RMK AO2 SLPNO T00220022 $
KBOK 061156Z AUTO 00000KT 10SM CLR 04/03 A3007 RMK AO2 SLP184 70002 T00390033 10050 20028 50003 $
KBOK 061056Z AUTO 00000KT 10SM CLR 03/03 A3007 RMK AO2 SLP185 T00330033 $
KBOK 060956Z AUTO 10003KT 10SM CLR 03/03 A3006 RMK AO2 SLP182 T00330033 $
KBOK 060856Z AUTO 09004KT 10SM CLR 03/03 A3006 RMK AO2 SLP182 T00330033 51005 $
KBOK 060756Z AUTO 09003KT 10SM CLR 04/04 A3005 RMK AO2 SLP180 T00440044 $
KBOK 060656Z AUTO 00000KT 10SM CLR 05/05 A3005 RMK AO2 SLP178 T00500050 401000039 $
KBOK 060556Z AUTO 07003KT 10SM CLR 05/05 A3004 RMK AO2 SLP177 T00500050 10089 20039 51013 $
KBOK 060456Z AUTO 00000KT 10SM CLR 04/04 A3003 RMK AO2 SLP174 T00440044 $
KBOK 060356Z AUTO 00000KT 10SM CLR 05/05 A3002 RMK AO2 SLP169 T00500050 $
KBOK 060256Z AUTO 00000KT 10SM FEW029 05/05 A3000 RMK AO2 SLP163 T00500050 51005 $
KBOK 060156Z AUTO 00000KT 10SM FEW027 06/06 A3000 RMK AO2 SLP163 T00610061 $
KBOK 060131Z AUTO 00000KT 10SM BKN027 07/07 A3000 RMK AO2 $
KBOK 060056Z AUTO 00000KT 10SM CLR 07/07 A2999 RMK AO2 SLP159 T00720067 $
KBOK 060013Z AUTO 15004KT 10SM FEW012 SCT019 09/07 A2999 RMK AO2 $
KBOK 052356Z AUTO VRB03KT 10SM BKN012 OVC017 09/07 A2999 RMK AO2 SLP157 60000 T00890067 10100 20072 53004 $
KBOK 052256Z AUTO 17005KT 10SM OVC014 09/07 A2998 RMK AO2 SLP153 T00940067 $
KBOK 052223Z AUTO 16005KT 10SM BKN014 OVC110 09/07 A2998 RMK AO2 $
KBOK 052156Z AUTO VRB04KT 10SM SCT018 BKN026 OVC110 09/06 A2998 RMK AO2 SLP152 T00940061 $
KBOK 052140Z AUTO VRB04KT 10SM SCT018 BKN026 OVC034 09/06 A2997 RMK AO2 $
KBOK 052056Z AUTO 16005KT 10SM FEW030 BKN039 BKN110 09/06 A2997 RMK AO2 SLP152 60000 T00890061 58004 $
KBOK 052027Z AUTO 15004KT 10SM SCT021 SCT028 09/06 A2998 RMK AO2 $
KBOK 051956Z AUTO 14009KT 10SM BKN015 BKN022 09/07 A2998 RMK AO2 SLP154 T00890067 $
KBOK 051856Z AUTO 09004KT 10SM BKN026 BKN032 OVC070 08/07 A2999 RMK AO2 RAE07 SLP159 P0000 T00830072 $